Terminal Aerodrome Forecast
Issued by NWS Tampa Bay Area, FL

Home | Current Version | Previous Version | Text Only | Print | Product List | Glossary On
Versions: 1 2 3 4 5 6 7 8 9 10 11 12 13 14 15 16 17 18 19 20 21 22 23 24 25 26 27
000
FTUS42 KTBW 251100
TAFTPA
TAF
KTPA 251136Z 2512/2612 18003KT P6SM SCT030
     FM251400 21006KT P6SM VCTS SCT035CB
     FM251800 23007KT P6SM VCTS SCT040CB SCT250
     FM260000 23004KT P6SM FEW035 BKN250
     FM260400 00000KT P6SM FEW025 SCT250=

USA.gov is the U.S. government's official web portal to all federal, state and local government web resources and services.